< < Back
Terminal Aerodrome Forecast


Current Version              Previous Versions:   1  2  3  4  5  6  7  8  9  

Terminal Aerodrome Forecast

552
FTUS42 KFFC 210100 AAA
TAFPDK
TAF AMD
KPDK 210151Z 2102/2124 26002KT P6SM SCT120
     FM211000 29005KT P6SM FEW250
     FM211600 32010G16KT P6SM FEW250
     FM212300 33006KT P6SM SKC=



Latest METAR

016
SAUS70 KWBC 210700 RRG
MTRPDK
METAR KPDK 210653Z AUTO 00000KT 6SM BR CLR 10/09 A3001 RMK AO2 SLP157
T01000089


USA.gov is the U.S. government's official web portal to all federal, state and local government web resources and services.